Observation data for Friona on 03/09/2018      Previous  Date  Next       Current Mesonet Observations  Soil Data  Daily Summary Page  Observations in Plain Language
KFAS 090600Z 22015G21KT 13/M09 A2986 RMK A01 T01261089  RH  021%=      5-min Rain = 0
KFAS 090605Z 23016G21KT 13/M09 A2986 RMK A01 T01271089  RH  021%=      5-min Rain = 0
KFAS 090610Z 23016G22KT 13/M09 A2986 RMK A01 T01271093  RH  021%=      5-min Rain = 0
KFAS 090615Z 23018G23KT 13/M10 A2986 RMK A01 T01251096  RH  020%=      5-min Rain = 0
KFAS 090620Z 23018KT 12/M10 A2986 RMK A01 T01191097  RH  021%=      5-min Rain = 0
KFAS 090625Z 23018G23KT 12/M10 A2985 RMK A01 T01161097  RH  021%=      5-min Rain = 0
KFAS 090630Z 23017KT 11/M10 A2985 RMK A01 T01131096  RH  022%=      5-min Rain = 0
KFAS 090635Z 23017G22KT 11/M10 A2985 RMK A01 T01131096  RH  022%=      5-min Rain = 0
KFAS 090640Z 24016KT 11/M10 A2985 RMK A01 T01121096  RH  022%=      5-min Rain = 0
KFAS 090645Z 24017KT 11/M10 A2985 RMK A01 T01121096  RH  022%=      5-min Rain = 0
KFAS 090650Z 24016KT 11/M10 A2985 RMK A01 T01101097  RH  022%=      5-min Rain = 0
KFAS 090655Z 24015KT 11/M10 A2985 RMK A01 T01091097  RH  022%=      5-min Rain = 0
KFAS 090700Z 24015KT 11/M10 A2985 RMK A01 T01071097  RH  023%=      5-min Rain = 0
KFAS 090705Z 24016G21KT 11/M10 A2985 RMK A01 T01101095  RH  023%=      5-min Rain = 0
KFAS 090710Z 24016G21KT 11/M09 A2985 RMK A01 T01131094  RH  022%=      5-min Rain = 0
KFAS 090715Z 24017KT 12/M09 A2985 RMK A01 T01161093  RH  022%=      5-min Rain = 0
KFAS 090720Z 24018G23KT 12/M09 A2985 RMK A01 T01171093  RH  022%=      5-min Rain = 0
KFAS 090725Z 24017G22KT 11/M09 A2985 RMK A01 T01141092  RH  023%=      5-min Rain = 0
KFAS 090730Z 24017KT 11/M09 A2985 RMK A01 T01141091  RH  023%=      5-min Rain = 0
KFAS 090735Z 24016KT 11/M09 A2985 RMK A01 T01131090  RH  023%=      5-min Rain = 0
KFAS 090740Z 24017KT 11/M09 A2985 RMK A01 T01121089  RH  023%=      5-min Rain = 0
KFAS 090745Z 25018G23KT 11/M09 A2985 RMK A01 T01121088  RH  024%=      5-min Rain = 0
KFAS 090750Z 24020KT 11/M09 A2984 RMK A01 T01131088  RH  023%=      5-min Rain = 0
KFAS 090755Z 25019G24KT 11/M09 A2984 RMK A01 T01121088  RH  024%=      5-min Rain = 0
KFAS 090800Z 24019G24KT 11/M09 A2985 RMK A01 T01101088  RH  024%=      5-min Rain = 0
KFAS 090805Z 25018KT 11/M09 A2985 RMK A01 T01081088  RH  024%=      5-min Rain = 0
KFAS 090810Z 25016KT 10/M09 A2985 RMK A01 T01041087  RH  025%=      5-min Rain = 0
KFAS 090815Z 25016KT 10/M09 A2985 RMK A01 T01011087  RH  026%=      5-min Rain = 0
KFAS 090820Z 25017G23KT 10/M09 A2985 RMK A01 T01001086  RH  026%=      5-min Rain = 0
KFAS 090825Z 25016KT 10/M09 A2985 RMK A01 T00961087  RH  027%=      5-min Rain = 0
KFAS 090830Z 25016KT 10/M09 A2984 RMK A01 T00951089  RH  026%=      5-min Rain = 0
KFAS 090835Z 25016KT 09/M09 A2984 RMK A01 T00941091  RH  026%=      5-min Rain = 0
KFAS 090840Z 25014KT 09/M09 A2984 RMK A01 T00891093  RH  027%=      5-min Rain = 0
KFAS 090845Z 25014KT 08/M09 A2984 RMK A01 T00811094  RH  028%=      5-min Rain = 0
KFAS 090850Z 25013KT 08/M10 A2984 RMK A01 T00771096  RH  028%=      5-min Rain = 0
KFAS 090855Z 25012KT 08/M10 A2984 RMK A01 T00761097  RH  028%=      5-min Rain = 0
KFAS 090900Z 25012KT 08/M10 A2984 RMK A01 T00751098  RH  028%=      5-min Rain = 0
KFAS 090905Z 25013KT 08/M10 A2984 RMK A01 T00751098  RH  028%=      5-min Rain = 0
KFAS 090910Z 24014KT 08/M10 A2983 RMK A01 T00801098  RH  027%=      5-min Rain = 0
KFAS 090915Z 25015KT 09/M10 A2983 RMK A01 T00851099  RH  026%=      5-min Rain = 0
KFAS 090920Z 25015KT 09/M10 A2983 RMK A01 T00891098  RH  026%=      5-min Rain = 0
KFAS 090925Z 25014KT 09/M10 A2983 RMK A01 T00881098  RH  026%=      5-min Rain = 0
KFAS 090930Z 25014KT 09/M10 A2983 RMK A01 T00851098  RH  026%=      5-min Rain = 0
KFAS 090935Z 25013KT 08/M10 A2983 RMK A01 T00801100  RH  027%=      5-min Rain = 0
KFAS 090940Z 25013KT 08/M10 A2983 RMK A01 T00761102  RH  027%=      5-min Rain = 0
KFAS 090945Z 25012KT 08/M11 A2983 RMK A01 T00771105  RH  026%=      5-min Rain = 0
KFAS 090950Z 25011KT 08/M11 A2983 RMK A01 T00751107  RH  026%=      5-min Rain = 0
KFAS 090955Z 25011KT 07/M11 A2983 RMK A01 T00731108  RH  026%=      5-min Rain = 0
KFAS 091000Z 25011KT 07/M11 A2982 RMK A01 T00671110  RH  027%=      5-min Rain = 0
KFAS 091005Z 25011KT 06/M11 A2982 RMK A01 T00621110  RH  028%=      5-min Rain = 0
KFAS 091010Z 27010KT 06/M11 A2982 RMK A01 T00581110  RH  029%=      5-min Rain = 0
KFAS 091015Z 30010KT 04/M12 A2982 RMK A01 T00441116  RH  030%=      5-min Rain = 0
KFAS 091020Z 29009KT 04/M12 A2983 RMK A01 T00391117  RH  031%=      5-min Rain = 0
KFAS 091025Z 30011KT 04/M12 A2983 RMK A01 T00351119  RH  031%=      5-min Rain = 0
KFAS 091030Z 30010KT 03/M12 A2983 RMK A01 T00311121  RH  031%=      5-min Rain = 0
KFAS 091035Z 30010KT 03/M12 A2983 RMK A01 T00271123  RH  032%=      5-min Rain = 0
KFAS 091040Z 30011KT 03/M12 A2983 RMK A01 T00281123  RH  032%=      5-min Rain = 0
KFAS 091045Z 30008KT 03/M13 A2983 RMK A01 T00291125  RH  031%=      5-min Rain = 0
KFAS 091050Z 30006KT 02/M13 A2983 RMK A01 T00221127  RH  032%=      5-min Rain = 0
KFAS 091055Z 30006KT 02/M13 A2983 RMK A01 T00181128  RH  033%=      5-min Rain = 0
KFAS 091100Z 30005KT 02/M13 A2983 RMK A01 T00181128  RH  033%=      5-min Rain = 0
KFAS 091105Z 29004KT 02/M13 A2983 RMK A01 T00191128  RH  032%=      5-min Rain = 0
KFAS 091110Z 28004KT 02/M13 A2983 RMK A01 T00181129  RH  032%=      5-min Rain = 0
KFAS 091115Z 28005KT 02/M13 A2984 RMK A01 T00171129  RH  033%=      5-min Rain = 0
KFAS 091120Z 27004KT 02/M13 A2984 RMK A01 T00161130  RH  033%=      5-min Rain = 0
KFAS 091125Z 26005KT 02/M13 A2984 RMK A01 T00151130  RH  033%=      5-min Rain = 0
KFAS 091130Z 27005KT 02/M13 A2984 RMK A01 T00171131  RH  032%=      5-min Rain = 0
KFAS 091135Z 27005KT 01/M13 A2984 RMK A01 T00071129  RH  035%=      5-min Rain = 0
KFAS 091140Z 28004KT M01/M13 A2984 RMK A01 T10061127  RH  039%=      5-min Rain = 0
KFAS 091145Z 29006KT 00/12 A2984 RMK A01 T00-00-121  RH  039%=      5-min Rain = 0
KFAS 091150Z 28005KT 01/M12 A2984 RMK A01 T00051124  RH  037%=      5-min Rain = 0
KFAS 091155Z 28006KT 01/M13 A2984 RMK A01 T00081129  RH  035%=      5-min Rain = 0
KFAS 091200Z 26007KT 00/M13 A2984 RMK A01 T00021132  RH  036%=      5-min Rain = 0
KFAS 091205Z 25008KT M01/M13 A2984 RMK A01 T10141126  RH  042%=      5-min Rain = 0
KFAS 091210Z 25008KT M01/M12 A2984 RMK A01 T10081122  RH  042%=      5-min Rain = 0
KFAS 091215Z 25007KT M01/M13 A2984 RMK A01 T10051126  RH  039%=      5-min Rain = 0
KFAS 091220Z 25006KT M01/M12 A2984 RMK A01 T10101116  RH  044%=      5-min Rain = 0
KFAS 091225Z 25006KT M01/M12 A2984 RMK A01 T10081115  RH  044%=      5-min Rain = 0
KFAS 091230Z 24007KT M01/M10 A2984 RMK A01 T10141103  RH  051%=      5-min Rain = 0
KFAS 091235Z 23008KT M01/M10 A2984 RMK A01 T10121099  RH  052%=      5-min Rain = 0
KFAS 091240Z 23008KT M02/M10 A2984 RMK A01 T10201096  RH  056%=      5-min Rain = 0
KFAS 091245Z 24005KT M02/M10 A2985 RMK A01 T10231097  RH  057%=      5-min Rain = 0
KFAS 091250Z 24005KT M01/M10 A2985 RMK A01 T10141104  RH  050%=      5-min Rain = 0
KFAS 091255Z 23006KT M01/M11 A2985 RMK A01 T10051107  RH  046%=      5-min Rain = 0
KFAS 091300Z 23007KT M01/M11 A2985 RMK A01 T10071109  RH  046%=      5-min Rain = 0
KFAS 091305Z 23008KT M01/M11 A2985 RMK A01 T10121105  RH  049%=      5-min Rain = 0
KFAS 091310Z 23008KT M02/M10 A2985 RMK A01 T10181101  RH  053%=      5-min Rain = 0
KFAS 091315Z 23008KT M02/M10 A2985 RMK A01 T10211099  RH  055%=      5-min Rain = 0
KFAS 091320Z 23006KT M02/M10 A2985 RMK A01 T10191103  RH  052%=      5-min Rain = 0
KFAS 091325Z 24007KT M02/M10 A2985 RMK A01 T10201103  RH  053%=      5-min Rain = 0
KFAS 091330Z 24008KT M02/M10 A2985 RMK A01 T10191101  RH  053%=      5-min Rain = 0
KFAS 091335Z 24008KT M01/M10 A2985 RMK A01 T10081104  RH  048%=      5-min Rain = 0
KFAS 091340Z 25007KT 00/M11 A2985 RMK A01 T00031106  RH  044%=      5-min Rain = 0
KFAS 091345Z 24009KT 02/M11 A2985 RMK A01 T00161107  RH  039%=      5-min Rain = 0
KFAS 091350Z 24008KT 03/M11 A2985 RMK A01 T00301106  RH  036%=      5-min Rain = 0
KFAS 091355Z 25007KT 04/M11 A2986 RMK A01 T00381110  RH  033%=      5-min Rain = 0
KFAS 091400Z 25008KT 05/M11 A2986 RMK A01 T00481113  RH  030%=      5-min Rain = 0
KFAS 091405Z 25009KT 05/M12 A2986 RMK A01 T00521115  RH  029%=      5-min Rain = 0
KFAS 091410Z 26009KT 05/M12 A2986 RMK A01 T00521116  RH  028%=      5-min Rain = 0
KFAS 091415Z 27009KT 05/M11 A2986 RMK A01 T00501112  RH  030%=      5-min Rain = 0
KFAS 091420Z 28008KT 06/M11 A2986 RMK A01 T00551111  RH  029%=      5-min Rain = 0
KFAS 091425Z 29006KT 06/M11 A2987 RMK A01 T00571110  RH  029%=      5-min Rain = 0
KFAS 091430Z 28007KT 06/M11 A2987 RMK A01 T00601110  RH  028%=      5-min Rain = 0
KFAS 091435Z 28007KT 07/M11 A2987 RMK A01 T00661109  RH  027%=      5-min Rain = 0
KFAS 091440Z 28006KT 07/M11 A2987 RMK A01 T00721106  RH  027%=      5-min Rain = 0
KFAS 091445Z 28006KT 08/M10 A2987 RMK A01 T00791102  RH  026%=      5-min Rain = 0
KFAS 091450Z 29007KT 09/M10 A2987 RMK A01 T00861101  RH  025%=      5-min Rain = 0
KFAS 091455Z 28006KT 09/M10 A2988 RMK A01 T00891101  RH  025%=      5-min Rain = 0
KFAS 091500Z 28005KT 09/M10 A2988 RMK A01 T00921100  RH  024%=      5-min Rain = 0
KFAS 091505Z 27005KT 10/M10 A2987 RMK A01 T00971099  RH  024%=      5-min Rain = 0
KFAS 091510Z 27005KT 10/M10 A2987 RMK A01 T01031097  RH  023%=      5-min Rain = 0
KFAS 091515Z 30006KT 11/M10 A2987 RMK A01 T01121096  RH  022%=      5-min Rain = 0
KFAS 091520Z 31007KT 12/M10 A2987 RMK A01 T01241099  RH  020%=      5-min Rain = 0
KFAS 091525Z 31007KT 13/M10 A2988 RMK A01 T01301097  RH  020%=      5-min Rain = 0
KFAS 091530Z 32009KT 14/M10 A2988 RMK A01 T01371104  RH  018%=      5-min Rain = 0
KFAS 091535Z 31007KT 14/M10 A2988 RMK A01 T01431102  RH  017%=      5-min Rain = 0
KFAS 091540Z 31009KT 15/M11 A2988 RMK A01 T01491106  RH  016%=      5-min Rain = 0
KFAS 091545Z 32009KT 15/M11 A2988 RMK A01 T01531108  RH  015%=      5-min Rain = 0
KFAS 091550Z 32009KT 16/M11 A2988 RMK A01 T01551108  RH  015%=      5-min Rain = 0
KFAS 091555Z 32010KT 16/M11 A2988 RMK A01 T01581108  RH  015%=      5-min Rain = 0
KFAS 091600Z 33010KT 16/M11 A2988 RMK A01 T01601106  RH  015%=      5-min Rain = 0
KFAS 091605Z 33011KT 16/M11 A2988 RMK A01 T01631105  RH  015%=      5-min Rain = 0
KFAS 091610Z 33009KT 17/M11 A2988 RMK A01 T01671105  RH  014%=      5-min Rain = 0
KFAS 091615Z 34011KT 17/M11 A2988 RMK A01 T01701106  RH  014%=      5-min Rain = 0
KFAS 091620Z 34012G18KT 18/M10 A2988 RMK A01 T01781104  RH  014%=      5-min Rain = 0
KFAS 091625Z 35012KT 18/M10 A2988 RMK A01 T01821103  RH  013%=      5-min Rain = 0
KFAS 091630Z 01012KT 19/M10 A2988 RMK A01 T01861102  RH  013%=      5-min Rain = 0
KFAS 091635Z 00013KT 19/M10 A2988 RMK A01 T01891102  RH  013%=      5-min Rain = 0
KFAS 091640Z 00015G20KT 19/M11 A2988 RMK A01 T01921105  RH  012%=      5-min Rain = 0
KFAS 091645Z 03014G19KT 19/M11 A2988 RMK A01 T01941112  RH  011%=      5-min Rain = 0
KFAS 091650Z 02017KT 20/M11 A2987 RMK A01 T01961110  RH  012%=      5-min Rain = 0
KFAS 091655Z 02016G22KT 20/M11 A2987 RMK A01 T01971110  RH  011%=      5-min Rain = 0
KFAS 091700Z 03015G20KT 20/M11 A2987 RMK A01 T01991111  RH  011%=      5-min Rain = 0
KFAS 091705Z 02015KT 20/M11 A2987 RMK A01 T01991110  RH  011%=      5-min Rain = 0
KFAS 091710Z 02018KT 20/M11 A2987 RMK A01 T02001112  RH  011%=      5-min Rain = 0
KFAS 091715Z 02016KT 20/M11 A2987 RMK A01 T01991111  RH  011%=      5-min Rain = 0
KFAS 091720Z 03015KT 20/M11 A2987 RMK A01 T02031109  RH  011%=      5-min Rain = 0
KFAS 091725Z 02017G23KT 20/M11 A2987 RMK A01 T02031109  RH  011%=      5-min Rain = 0
KFAS 091730Z 02015G20KT 20/M11 A2987 RMK A01 T02021109  RH  011%=      5-min Rain = 0
KFAS 091735Z 02016G22KT 21/M11 A2986 RMK A01 T02071107  RH  011%=      5-min Rain = 0
KFAS 091740Z 01015G20KT 21/M11 A2986 RMK A01 T02061108  RH  011%=      5-min Rain = 0
KFAS 091745Z 02016G24KT 21/M11 A2986 RMK A01 T02081109  RH  011%=      5-min Rain = 0
KFAS 091750Z 02017G23KT 21/M11 A2986 RMK A01 T02091109  RH  011%=      5-min Rain = 0
KFAS 091755Z 01018G24KT 21/M11 A2986 RMK A01 T02081109  RH  011%=      5-min Rain = 0
KFAS 091800Z 02017G22KT 21/M11 A2987 RMK A01 T02071110  RH  011%=      5-min Rain = 0
KFAS 091805Z 02017G22KT 21/M11 A2987 RMK A01 T02091110  RH  011%=      5-min Rain = 0
KFAS 091810Z 03016G22KT 21/M11 A2986 RMK A01 T02111111  RH  010%=      5-min Rain = 0
KFAS 091815Z 02016G22KT 21/M11 A2986 RMK A01 T02111111  RH  010%=      5-min Rain = 0
KFAS 091820Z 03016G22KT 21/M11 A2986 RMK A01 T02091113  RH  010%=      5-min Rain = 0
KFAS 091825Z 04017G24KT 21/M11 A2986 RMK A01 T02081113  RH  010%=      5-min Rain = 0
KFAS 091830Z 02019G24KT 21/M12 A2986 RMK A01 T02081115  RH  010%=      5-min Rain = 0
KFAS 091835Z 02016G21KT 21/M12 A2986 RMK A01 T02101115  RH  010%=      5-min Rain = 0
KFAS 091840Z 02017KT 21/M12 A2985 RMK A01 T02111115  RH  010%=      5-min Rain = 0
KFAS 091845Z 03016KT 21/M12 A2985 RMK A01 T02131116  RH  010%=      5-min Rain = 0
KFAS 091850Z 01014G20KT 21/M11 A2986 RMK A01 T02141114  RH  010%=      5-min Rain = 0
KFAS 091855Z 03012G17KT 22/M11 A2986 RMK A01 T02161113  RH  010%=      5-min Rain = 0
KFAS 091900Z 04013G19KT 22/M11 A2985 RMK A01 T02201112  RH  010%=      5-min Rain = 0
KFAS 091905Z 02014KT 22/M11 A2986 RMK A01 T02181113  RH  010%=      5-min Rain = 0
KFAS 091910Z 01015KT 22/M11 A2986 RMK A01 T02181113  RH  010%=      5-min Rain = 0
KFAS 091915Z 01014G20KT 22/M11 A2985 RMK A01 T02161114  RH  010%=      5-min Rain = 0
KFAS 091920Z 02015KT 22/M11 A2985 RMK A01 T02171112  RH  010%=      5-min Rain = 0
KFAS 091925Z 02014G20KT 21/M11 A2985 RMK A01 T02131113  RH  010%=      5-min Rain = 0
KFAS 091930Z 02012G18KT 22/M11 A2986 RMK A01 T02151113  RH  010%=      5-min Rain = 0
KFAS 091935Z 02012G17KT 22/M11 A2985 RMK A01 T02151112  RH  010%=      5-min Rain = 0
KFAS 091940Z 02015G21KT 21/M11 A2985 RMK A01 T02131114  RH  010%=      5-min Rain = 0
KFAS 091945Z 01013KT 21/M11 A2985 RMK A01 T02111113  RH  010%=      5-min Rain = 0
KFAS 091950Z 00012KT 22/M11 A2985 RMK A01 T02151113  RH  010%=      5-min Rain = 0
KFAS 091955Z 00011KT 22/M11 A2985 RMK A01 T02171110  RH  010%=      5-min Rain = 0
KFAS 092000Z 01012KT 22/M12 A2985 RMK A01 T02181115  RH  010%=      5-min Rain = 0
KFAS 092005Z 01008G13KT 22/M11 A2985 RMK A01 T02161111  RH  010%=      5-min Rain = 0
KFAS 092010Z 36012KT 22/M11 A2985 RMK A01 T02161110  RH  010%=      5-min Rain = 0
KFAS 092015Z 35009G14KT 22/M11 A2985 RMK A01 T02151111  RH  010%=      5-min Rain = 0
KFAS 092020Z 35011KT 22/M11 A2985 RMK A01 T02181110  RH  010%=      5-min Rain = 0
KFAS 092025Z 01010G16KT 22/M11 A2984 RMK A01 T02191113  RH  010%=      5-min Rain = 0
KFAS 092030Z 00011G16KT 22/M12 A2984 RMK A01 T02161116  RH  010%=      5-min Rain = 0
KFAS 092035Z 36010G16KT 22/M12 A2984 RMK A01 T02151115  RH  010%=      5-min Rain = 0
KFAS 092040Z 36008KT 21/M12 A2984 RMK A01 T02141116  RH  010%=      5-min Rain = 0
KFAS 092045Z 36008G16KT 22/M11 A2984 RMK A01 T02161113  RH  010%=      5-min Rain = 0
KFAS 092050Z 36009KT 22/M12 A2984 RMK A01 T02171115  RH  010%=      5-min Rain = 0
KFAS 092055Z 01009KT 22/M12 A2984 RMK A01 T02171117  RH  010%=      5-min Rain = 0
KFAS 092100Z 35005KT 22/M12 A2984 RMK A01 T02181117  RH  010%=      5-min Rain = 0
KFAS 092105Z 35006KT 22/M12 A2984 RMK A01 T02181117  RH  010%=      5-min Rain = 0
KFAS 092110Z 32005G11KT 22/M12 A2983 RMK A01 T02171118  RH  010%=      5-min Rain = 0
KFAS 092115Z 36008KT 22/M12 A2983 RMK A01 T02181118  RH  009%=      5-min Rain = 0
KFAS 092120Z 02006KT 22/M12 A2983 RMK A01 T02171119  RH  009%=      5-min Rain = 0
KFAS 092125Z 34005KT 22/M12 A2983 RMK A01 T02161119  RH  009%=      5-min Rain = 0
KFAS 092130Z 02002G7KT 22/M12 A2983 RMK A01 T02151120  RH  010%=      5-min Rain = 0
KFAS 092135Z 00005KT 22/M12 A2983 RMK A01 T02161118  RH  010%=      5-min Rain = 0
KFAS 092140Z 34006KT 22/M12 A2983 RMK A01 T02171117  RH  010%=      5-min Rain = 0
KFAS 092145Z 33006KT 22/M12 A2983 RMK A01 T02201118  RH  009%=      5-min Rain = 0
KFAS 092150Z 00002KT 22/M12 A2983 RMK A01 T02171120  RH  009%=      5-min Rain = 0
KFAS 092155Z 33001G7KT 22/M12 A2983 RMK A01 T02181120  RH  009%=      5-min Rain = 0
KFAS 092200Z 03006KT 22/M12 A2983 RMK A01 T02171116  RH  010%=      5-min Rain = 0
KFAS 092205Z 06005KT 22/M12 A2982 RMK A01 T02161117  RH  010%=      5-min Rain = 0
KFAS 092210Z 05007G13KT 22/M12 A2982 RMK A01 T02151119  RH  010%=      5-min Rain = 0
KFAS 092215Z 06005KT 21/M12 A2982 RMK A01 T02121121  RH  010%=      5-min Rain = 0
KFAS 092220Z 08005KT 21/M12 A2982 RMK A01 T02131120  RH  010%=      5-min Rain = 0
KFAS 092225Z 07004KT 21/M12 A2982 RMK A01 T02131122  RH  009%=      5-min Rain = 0
KFAS 092230Z 07002KT 21/M12 A2982 RMK A01 T02121122  RH  009%=      5-min Rain = 0
KFAS 092235Z 08003KT 21/M12 A2982 RMK A01 T02141120  RH  010%=      5-min Rain = 0
KFAS 092240Z 05004KT 21/M12 A2982 RMK A01 T02141122  RH  009%=      5-min Rain = 0
KFAS 092245Z 02004KT 21/M12 A2982 RMK A01 T02131122  RH  009%=      5-min Rain = 0
KFAS 092250Z 04006KT 21/M12 A2982 RMK A01 T02131122  RH  009%=      5-min Rain = 0
KFAS 092255Z 03004KT 21/M12 A2982 RMK A01 T02111124  RH  009%=      5-min Rain = 0
KFAS 092300Z 06005KT 21/M12 A2982 RMK A01 T02101121  RH  010%=      5-min Rain = 0
KFAS 092305Z 08002KT 21/M12 A2982 RMK A01 T02101124  RH  009%=      5-min Rain = 0
KFAS 092310Z 06002KT 21/M12 A2982 RMK A01 T02131123  RH  009%=      5-min Rain = 0
KFAS 092315Z 03003KT 22/M12 A2982 RMK A01 T02161122  RH  009%=      5-min Rain = 0
KFAS 092320Z 04005KT 22/M12 A2982 RMK A01 T02151124  RH  009%=      5-min Rain = 0
KFAS 092325Z 07004KT 21/M12 A2982 RMK A01 T02111123  RH  009%=      5-min Rain = 0
KFAS 092330Z 07002KT 21/M13 A2982 RMK A01 T02091126  RH  009%=      5-min Rain = 0
KFAS 092335Z 09003KT 21/M13 A2982 RMK A01 T02081126  RH  009%=      5-min Rain = 0
KFAS 092340Z 09005KT 21/M12 A2982 RMK A01 T02071124  RH  010%=      5-min Rain = 0
KFAS 092345Z 09005KT 21/M13 A2982 RMK A01 T02051125  RH  010%=      5-min Rain = 0
KFAS 092350Z 09005KT 20/M13 A2982 RMK A01 T02041125  RH  010%=      5-min Rain = 0
KFAS 092355Z 07004KT 20/M12 A2982 RMK A01 T02011117  RH  011%=      5-min Rain = 0
KFAS 100000Z 06004KT 20/M11 A2982 RMK A01 T01991113  RH  011%=      5-min Rain = 0
KFAS 100005Z 08004KT 20/M11 A2982 RMK A01 T01951111  RH  012%=      5-min Rain = 0
KFAS 100010Z 07009KT 19/M11 A2982 RMK A01 T01921110  RH  012%=      5-min Rain = 0
KFAS 100015Z 06008KT 19/M10 A2983 RMK A01 T01871101  RH  013%=      5-min Rain = 0
KFAS 100020Z 06006KT 18/M09 A2983 RMK A01 T01801094  RH  015%=      5-min Rain = 0
KFAS 100025Z 06008KT 17/M10 A2983 RMK A01 T01731099  RH  015%=      5-min Rain = 0
KFAS 100030Z 06007KT 17/M10 A2983 RMK A01 T01701104  RH  014%=      5-min Rain = 0
KFAS 100035Z 07006KT 17/M10 A2983 RMK A01 T01671098  RH  015%=      5-min Rain = 0
KFAS 100040Z 06007KT 17/M10 A2983 RMK A01 T01661096  RH  016%=      5-min Rain = 0
KFAS 100045Z 05008KT 16/M10 A2983 RMK A01 T01611103  RH  015%=      5-min Rain = 0
KFAS 100050Z 06008KT 16/M11 A2984 RMK A01 T01571114  RH  014%=      5-min Rain = 0
KFAS 100055Z 06007KT 15/M12 A2984 RMK A01 T01521116  RH  015%=      5-min Rain = 0
KFAS 100100Z 06007KT 15/M11 A2984 RMK A01 T01491111  RH  016%=      5-min Rain = 0
KFAS 100105Z 06007KT 15/M10 A2984 RMK A01 T01451101  RH  017%=      5-min Rain = 0
KFAS 100110Z 06007KT 14/M10 A2984 RMK A01 T01411101  RH  018%=      5-min Rain = 0
KFAS 100115Z 06007KT 14/M10 A2984 RMK A01 T01391103  RH  018%=      5-min Rain = 0
KFAS 100120Z 05007KT 13/M11 A2984 RMK A01 T01341113  RH  017%=      5-min Rain = 0
KFAS 100125Z 05007KT 13/M12 A2984 RMK A01 T01281116  RH  017%=      5-min Rain = 0
KFAS 100130Z 06008KT 13/M12 A2984 RMK A01 T01301117  RH  017%=      5-min Rain = 0
KFAS 100135Z 06008KT 13/M12 A2984 RMK A01 T01301115  RH  017%=      5-min Rain = 0
KFAS 100140Z 06009KT 13/M11 A2984 RMK A01 T01281114  RH  017%=      5-min Rain = 0
KFAS 100145Z 07008KT 12/M11 A2984 RMK A01 T01241111  RH  018%=      5-min Rain = 0
KFAS 100150Z 07007KT 12/M12 A2984 RMK A01 T01161124  RH  017%=      5-min Rain = 0
KFAS 100155Z 08007KT 11/M11 A2984 RMK A01 T01101113  RH  020%=      5-min Rain = 0
KFAS 100200Z 08007KT 11/M11 A2984 RMK A01 T01071113  RH  020%=      5-min Rain = 0
KFAS 100205Z 09006KT 11/M12 A2984 RMK A01 T01071116  RH  019%=      5-min Rain = 0
KFAS 100210Z 09007KT 11/M12 A2984 RMK A01 T01061116  RH  020%=      5-min Rain = 0
KFAS 100215Z 10008KT 10/M12 A2984 RMK A01 T00971116  RH  021%=      5-min Rain = 0
KFAS 100220Z 10008KT 09/M11 A2984 RMK A01 T00921114  RH  022%=      5-min Rain = 0
KFAS 100225Z 11007KT 09/M10 A2984 RMK A01 T00871100  RH  025%=      5-min Rain = 0
KFAS 100230Z 11007KT 09/M09 A2984 RMK A01 T00851088  RH  028%=      5-min Rain = 0
KFAS 100235Z 11006KT 09/M10 A2984 RMK A01 T00851096  RH  027%=      5-min Rain = 0
KFAS 100240Z 10006KT 08/M10 A2985 RMK A01 T00841095  RH  027%=      5-min Rain = 0
KFAS 100245Z 10005KT 09/M09 A2985 RMK A01 T00851089  RH  028%=      5-min Rain = 0
KFAS 100250Z 10005KT 08/M09 A2985 RMK A01 T00841088  RH  028%=      5-min Rain = 0
KFAS 100255Z 10004KT 08/M09 A2985 RMK A01 T00821093  RH  028%=      5-min Rain = 0
KFAS 100300Z 11004KT 08/M09 A2985 RMK A01 T00771092  RH  029%=      5-min Rain = 0
KFAS 100305Z 13004KT 07/M08 A2985 RMK A01 T00701083  RH  033%=      5-min Rain = 0
KFAS 100310Z 11005KT 08/M10 A2985 RMK A01 T00751101  RH  027%=      5-min Rain = 0
KFAS 100315Z 11006KT 08/M10 A2984 RMK A01 T00831104  RH  025%=      5-min Rain = 0
KFAS 100320Z 12006KT 08/M11 A2984 RMK A01 T00841105  RH  025%=      5-min Rain = 0
KFAS 100325Z 12006KT 08/M11 A2984 RMK A01 T00791111  RH  025%=      5-min Rain = 0
KFAS 100330Z 13005KT 07/M11 A2984 RMK A01 T00731110  RH  026%=      5-min Rain = 0
KFAS 100335Z 12006KT 07/M11 A2984 RMK A01 T00681105  RH  028%=      5-min Rain = 0
KFAS 100340Z 12006KT 07/M11 A2984 RMK A01 T00651108  RH  028%=      5-min Rain = 0
KFAS 100345Z 12005KT 06/M11 A2984 RMK A01 T00631105  RH  029%=      5-min Rain = 0
KFAS 100350Z 13005KT 06/M11 A2985 RMK A01 T00621108  RH  028%=      5-min Rain = 0
KFAS 100355Z 12005KT 07/M12 A2985 RMK A01 T00651116  RH  026%=      5-min Rain = 0
KFAS 100400Z 12004KT 07/M12 A2986 RMK A01 T00671116  RH  025%=      5-min Rain = 0
KFAS 100405Z 13003KT 07/M12 A2986 RMK A01 T00711120  RH  024%=      5-min Rain = 0
KFAS 100410Z 14003KT 08/M12 A2986 RMK A01 T00751120  RH  024%=      5-min Rain = 0
KFAS 100415Z 12004KT 08/M12 A2986 RMK A01 T00771120  RH  023%=      5-min Rain = 0
KFAS 100420Z 11005KT 08/M12 A2985 RMK A01 T00781119  RH  023%=      5-min Rain = 0
KFAS 100425Z 11006KT 08/M12 A2984 RMK A01 T00801120  RH  023%=      5-min Rain = 0
KFAS 100430Z 11007KT 07/M12 A2983 RMK A01 T00721123  RH  023%=      5-min Rain = 0
KFAS 100435Z 11008KT 06/M13 A2983 RMK A01 T00571128  RH  025%=      5-min Rain = 0
KFAS 100440Z 12008KT 05/M12 A2984 RMK A01 T00521123  RH  027%=      5-min Rain = 0
KFAS 100445Z 14004KT 05/M11 A2985 RMK A01 T00481108  RH  031%=      5-min Rain = 0
KFAS 100450Z 18004KT 05/M11 A2986 RMK A01 T00491108  RH  031%=      5-min Rain = 0
KFAS 100455Z 16004KT 05/M10 A2986 RMK A01 T00471100  RH  033%=      5-min Rain = 0
KFAS 100500Z 14004KT 05/M10 A2986 RMK A01 T00511104  RH  032%=      5-min Rain = 0
KFAS 100505Z 23002KT 05/M11 A2986 RMK A01 T00511107  RH  031%=      5-min Rain = 0
KFAS 100510Z 30002KT 05/M11 A2986 RMK A01 T00481114  RH  030%=      5-min Rain = 0
KFAS 100515Z 14001KT 06/M11 A2986 RMK A01 T00601112  RH  028%=      5-min Rain = 0
KFAS 100520Z 14004KT 07/M11 A2986 RMK A01 T00671110  RH  027%=      5-min Rain = 0
KFAS 100525Z 16006KT 07/M11 A2986 RMK A01 T00681107  RH  027%=      5-min Rain = 0
KFAS 100530Z 16005KT 07/M11 A2985 RMK A01 T00661108  RH  027%=      5-min Rain = 0
KFAS 100535Z 16005KT 07/M11 A2985 RMK A01 T00701108  RH  027%=      5-min Rain = 0
KFAS 100540Z 16006KT 07/M11 A2985 RMK A01 T00711110  RH  026%=      5-min Rain = 0
KFAS 100545Z 16007KT 07/M11 A2985 RMK A01 T00651107  RH  028%=      5-min Rain = 0
KFAS 100550Z 17007KT 06/M10 A2985 RMK A01 T00551102  RH  031%=      5-min Rain = 0
KFAS 100555Z 17007KT 05/M10 A2985 RMK A01 T00491104  RH  032%=      5-min Rain = 0

Page generated in 0.0091 seconds.